sensor_id;sensor_type;location;lat;lon;timestamp;pressure;altitude;pressure_sealevel;temperature;humidity
21760;BME280;11041;50.854;20.580;2022-09-28T00:00:40;97059.59;;;10.34;97.98
21760;BME280;11041;50.854;20.580;2022-09-28T00:03:25;97068.03;;;10.41;98.52
21760;BME280;11041;50.854;20.580;2022-09-28T00:06:04;97063.22;;;10.38;98.45
21760;BME280;11041;50.854;20.580;2022-09-28T00:08:33;97052.50;;;10.33;98.10
21760;BME280;11041;50.854;20.580;2022-09-28T00:11:03;97061.63;;;10.37;98.64
21760;BME280;11041;50.854;20.580;2022-09-28T00:13:30;97055.59;;;10.32;98.52
21760;BME280;11041;50.854;20.580;2022-09-28T00:16:05;97064.28;;;10.34;98.44
21760;BME280;11041;50.854;20.580;2022-09-28T00:18:33;97062.25;;;10.31;98.45
21760;BME280;11041;50.854;20.580;2022-09-28T00:21:11;97072.88;;;10.32;99.14
21760;BME280;11041;50.854;20.580;2022-09-28T00:23:41;97059.41;;;10.27;98.92
21760;BME280;11041;50.854;20.580;2022-09-28T00:26:28;97065.78;;;10.31;98.99
21760;BME280;11041;50.854;20.580;2022-09-28T00:28:58;97055.84;;;10.27;98.82
21760;BME280;11041;50.854;20.580;2022-09-28T00:31:27;97063.41;;;10.30;99.03
21760;BME280;11041;50.854;20.580;2022-09-28T00:33:58;97058.72;;;10.30;99.28
21760;BME280;11041;50.854;20.580;2022-09-28T00:36:30;97055.03;;;10.26;99.16
21760;BME280;11041;50.854;20.580;2022-09-28T00:39:02;97056.75;;;10.31;99.14
21760;BME280;11041;50.854;20.580;2022-09-28T00:41:29;97058.28;;;10.28;99.02
21760;BME280;11041;50.854;20.580;2022-09-28T00:44:45;97062.69;;;10.33;99.20
21760;BME280;11041;50.854;20.580;2022-09-28T00:50:31;97056.75;;;10.31;99.03
21760;BME280;11041;50.854;20.580;2022-09-28T00:53:13;97056.22;;;10.25;98.64
21760;BME280;11041;50.854;20.580;2022-09-28T00:55:59;97063.22;;;10.22;99.29
21760;BME280;11041;50.854;20.580;2022-09-28T00:58:33;97056.47;;;10.20;98.91
21760;BME280;11041;50.854;20.580;2022-09-28T01:01:00;97066.38;;;10.24;98.94
21760;BME280;11041;50.854;20.580;2022-09-28T01:03:28;97062.03;;;10.23;99.03
21760;BME280;11041;50.854;20.580;2022-09-28T01:05:58;97059.06;;;10.29;99.25
21760;BME280;11041;50.854;20.580;2022-09-28T01:08:30;97064.56;;;10.29;98.83
21760;BME280;11041;50.854;20.580;2022-09-28T01:10:59;97060.19;;;10.28;98.58
21760;BME280;11041;50.854;20.580;2022-09-28T01:13:27;97061.00;;;10.28;98.08
21760;BME280;11041;50.854;20.580;2022-09-28T01:27:53;97059.22;;;10.20;97.66
21760;BME280;11041;50.854;20.580;2022-09-28T01:30:24;97051.69;;;10.17;97.75
21760;BME280;11041;50.854;20.580;2022-09-28T01:33:20;97040.53;;;10.10;96.95
21760;BME280;11041;50.854;20.580;2022-09-28T01:36:06;97045.47;;;10.04;96.97
21760;BME280;11041;50.854;20.580;2022-09-28T01:39:01;97055.22;;;10.01;96.67
21760;BME280;11041;50.854;20.580;2022-09-28T01:41:34;97060.88;;;9.93;96.56
21760;BME280;11041;50.854;20.580;2022-09-28T01:44:05;97065.81;;;9.87;96.52
21760;BME280;11041;50.854;20.580;2022-09-28T01:46:43;97060.94;;;9.80;96.75
21760;BME280;11041;50.854;20.580;2022-09-28T01:49:36;97061.19;;;9.75;96.78
21760;BME280;11041;50.854;20.580;2022-09-28T01:52:28;97062.63;;;9.69;97.17
21760;BME280;11041;50.854;20.580;2022-09-28T02:00:13;97069.56;;;9.67;97.92
21760;BME280;11041;50.854;20.580;2022-09-28T02:02:50;97050.63;;;9.62;97.80
21760;BME280;11041;50.854;20.580;2022-09-28T02:05:32;97060.09;;;9.64;97.23
21760;BME280;11041;50.854;20.580;2022-09-28T02:08:21;97062.06;;;9.64;97.16
21760;BME280;11041;50.854;20.580;2022-09-28T02:11:12;97060.72;;;9.57;96.88
21760;BME280;11041;50.854;20.580;2022-09-28T02:13:54;97067.47;;;9.60;96.94
21760;BME280;11041;50.854;20.580;2022-09-28T02:16:43;97076.72;;;9.55;96.89
21760;BME280;11041;50.854;20.580;2022-09-28T02:19:26;97071.03;;;9.48;96.82
21760;BME280;11041;50.854;20.580;2022-09-28T02:22:23;97072.19;;;9.47;97.46
21760;BME280;11041;50.854;20.580;2022-09-28T02:25:23;97075.28;;;9.46;97.66
21760;BME280;11041;50.854;20.580;2022-09-28T02:28:00;97070.84;;;9.41;97.18
21760;BME280;11041;50.854;20.580;2022-09-28T02:30:30;97077.91;;;9.42;97.53
21760;BME280;11041;50.854;20.580;2022-09-28T02:35:37;97084.81;;;9.36;97.29
21760;BME280;11041;50.854;20.580;2022-09-28T02:38:04;97081.59;;;9.34;97.27
21760;BME280;11041;50.854;20.580;2022-09-28T02:40:33;97075.22;;;9.30;97.44
21760;BME280;11041;50.854;20.580;2022-09-28T03:01:42;97087.25;;;9.13;97.21
21760;BME280;11041;50.854;20.580;2022-09-28T03:07:37;97096.38;;;9.17;97.28
21760;BME280;11041;50.854;20.580;2022-09-28T03:13:03;97106.19;;;9.18;96.71
21760;BME280;11041;50.854;20.580;2022-09-28T03:15:34;97109.72;;;9.18;96.78
21760;BME280;11041;50.854;20.580;2022-09-28T03:18:01;97099.00;;;9.13;96.80
21760;BME280;11041;50.854;20.580;2022-09-28T03:20:30;97102.19;;;9.15;97.08
21760;BME280;11041;50.854;20.580;2022-09-28T03:22:59;97103.81;;;9.16;96.51
21760;BME280;11041;50.854;20.580;2022-09-28T03:25:26;97099.38;;;9.12;96.58
21760;BME280;11041;50.854;20.580;2022-09-28T03:27:53;97109.28;;;9.16;96.74
21760;BME280;11041;50.854;20.580;2022-09-28T03:30:19;97103.81;;;9.16;96.68
21760;BME280;11041;50.854;20.580;2022-09-28T03:32:56;97107.91;;;9.23;96.86
21760;BME280;11041;50.854;20.580;2022-09-28T03:35:23;97113.38;;;9.23;96.63
21760;BME280;11041;50.854;20.580;2022-09-28T03:37:54;97101.63;;;9.22;96.43
21760;BME280;11041;50.854;20.580;2022-09-28T03:40:21;97109.94;;;9.26;96.59
21760;BME280;11041;50.854;20.580;2022-09-28T03:42:48;97092.69;;;9.25;96.87
21760;BME280;11041;50.854;20.580;2022-09-28T03:45:14;97106.59;;;9.32;96.57
21760;BME280;11041;50.854;20.580;2022-09-28T03:47:46;97103.31;;;9.27;96.03
21760;BME280;11041;50.854;20.580;2022-09-28T03:50:14;97103.91;;;9.20;94.99
21760;BME280;11041;50.854;20.580;2022-09-28T03:52:41;97100.72;;;9.18;95.27
21760;BME280;11041;50.854;20.580;2022-09-28T03:55:08;97092.53;;;9.06;95.28
21760;BME280;11041;50.854;20.580;2022-09-28T03:57:36;97100.41;;;9.07;95.71
21760;BME280;11041;50.854;20.580;2022-09-28T04:00:04;97099.63;;;9.07;95.53
21760;BME280;11041;50.854;20.580;2022-09-28T04:02:32;97105.09;;;9.07;95.85
21760;BME280;11041;50.854;20.580;2022-09-28T04:05:00;97102.56;;;9.02;95.49
21760;BME280;11041;50.854;20.580;2022-09-28T04:07:26;97100.19;;;9.00;95.33
21760;BME280;11041;50.854;20.580;2022-09-28T04:09:53;97095.97;;;8.90;95.10
21760;BME280;11041;50.854;20.580;2022-09-28T04:12:19;97103.63;;;8.85;94.96
21760;BME280;11041;50.854;20.580;2022-09-28T04:14:46;97103.38;;;8.78;94.94
21760;BME280;11041;50.854;20.580;2022-09-28T04:17:12;97106.38;;;8.72;94.94
21760;BME280;11041;50.854;20.580;2022-09-28T04:19:39;97093.84;;;8.59;94.80
21760;BME280;11041;50.854;20.580;2022-09-28T04:22:05;97102.63;;;8.52;94.68
21760;BME280;11041;50.854;20.580;2022-09-28T04:24:32;97094.50;;;8.44;95.13
21760;BME280;11041;50.854;20.580;2022-09-28T04:26:59;97088.75;;;8.37;95.16
21760;BME280;11041;50.854;20.580;2022-09-28T04:29:45;97092.53;;;8.32;95.05
21760;BME280;11041;50.854;20.580;2022-09-28T04:32:12;97095.94;;;8.29;94.91
21760;BME280;11041;50.854;20.580;2022-09-28T04:34:38;97086.56;;;8.18;95.02
21760;BME280;11041;50.854;20.580;2022-09-28T04:37:05;97091.25;;;8.17;95.38
21760;BME280;11041;50.854;20.580;2022-09-28T04:39:31;97103.56;;;8.11;94.63
21760;BME280;11041;50.854;20.580;2022-09-28T04:41:58;97107.09;;;7.99;94.90
21760;BME280;11041;50.854;20.580;2022-09-28T04:44:25;97110.38;;;7.93;94.83
21760;BME280;11041;50.854;20.580;2022-09-28T04:46:54;97110.59;;;7.87;95.07
21760;BME280;11041;50.854;20.580;2022-09-28T04:49:21;97113.28;;;7.75;95.24
21760;BME280;11041;50.854;20.580;2022-09-28T04:51:49;97122.50;;;7.71;95.84
21760;BME280;11041;50.854;20.580;2022-09-28T04:54:16;97120.28;;;7.64;96.72
21760;BME280;11041;50.854;20.580;2022-09-28T04:56:42;97125.28;;;7.62;97.34
21760;BME280;11041;50.854;20.580;2022-09-28T04:59:09;97120.03;;;7.57;97.62
21760;BME280;11041;50.854;20.580;2022-09-28T05:01:35;97121.44;;;7.63;98.17
21760;BME280;11041;50.854;20.580;2022-09-28T05:04:02;97116.44;;;7.65;98.73
21760;BME280;11041;50.854;20.580;2022-09-28T05:06:29;97126.22;;;7.66;99.07
21760;BME280;11041;50.854;20.580;2022-09-28T05:08:56;97122.81;;;7.69;99.01
21760;BME280;11041;50.854;20.580;2022-09-28T05:11:22;97125.69;;;7.73;99.24
21760;BME280;11041;50.854;20.580;2022-09-28T05:13:49;97125.00;;;7.76;99.04
21760;BME280;11041;50.854;20.580;2022-09-28T05:16:16;97134.00;;;7.76;99.32
21760;BME280;11041;50.854;20.580;2022-09-28T05:18:43;97131.06;;;7.81;99.26
21760;BME280;11041;50.854;20.580;2022-09-28T05:21:14;97125.94;;;7.80;99.30
21760;BME280;11041;50.854;20.580;2022-09-28T05:23:45;97141.81;;;7.86;99.52
21760;BME280;11041;50.854;20.580;2022-09-28T05:26:13;97137.72;;;7.93;99.63
21760;BME280;11041;50.854;20.580;2022-09-28T05:28:39;97140.69;;;8.00;99.99
21760;BME280;11041;50.854;20.580;2022-09-28T05:31:06;97136.16;;;8.04;99.21
21760;BME280;11041;50.854;20.580;2022-09-28T05:33:33;97136.63;;;8.06;99.62
21760;BME280;11041;50.854;20.580;2022-09-28T05:36:00;97127.19;;;8.16;99.81
21760;BME280;11041;50.854;20.580;2022-09-28T05:38:28;97130.59;;;8.25;99.75
21760;BME280;11041;50.854;20.580;2022-09-28T05:40:55;97132.31;;;8.29;99.55
21760;BME280;11041;50.854;20.580;2022-09-28T05:43:22;97131.56;;;8.41;99.73
21760;BME280;11041;50.854;20.580;2022-09-28T05:45:49;97123.50;;;8.45;99.64
21760;BME280;11041;50.854;20.580;2022-09-28T05:48:16;97136.38;;;8.57;99.88
21760;BME280;11041;50.854;20.580;2022-09-28T05:50:42;97125.53;;;8.60;99.55
21760;BME280;11041;50.854;20.580;2022-09-28T05:53:09;97138.34;;;8.68;99.24
21760;BME280;11041;50.854;20.580;2022-09-28T05:55:37;97138.66;;;8.79;99.00
21760;BME280;11041;50.854;20.580;2022-09-28T05:58:06;97128.16;;;8.81;98.75
21760;BME280;11041;50.854;20.580;2022-09-28T06:00:34;97129.88;;;8.86;98.70
21760;BME280;11041;50.854;20.580;2022-09-28T06:03:10;97132.16;;;8.96;98.17
21760;BME280;11041;50.854;20.580;2022-09-28T06:05:38;97137.97;;;8.94;97.43
21760;BME280;11041;50.854;20.580;2022-09-28T06:08:07;97134.09;;;8.95;97.67
21760;BME280;11041;50.854;20.580;2022-09-28T06:10:35;97144.13;;;9.04;97.68
21760;BME280;11041;50.854;20.580;2022-09-28T06:13:03;97141.25;;;9.12;97.73
21760;BME280;11041;50.854;20.580;2022-09-28T06:15:32;97136.69;;;9.16;97.59
21760;BME280;11041;50.854;20.580;2022-09-28T06:18:05;97136.25;;;9.14;96.49
21760;BME280;11041;50.854;20.580;2022-09-28T06:20:36;97139.31;;;9.13;96.15
21760;BME280;11041;50.854;20.580;2022-09-28T06:23:03;97148.91;;;9.19;96.34
21760;BME280;11041;50.854;20.580;2022-09-28T06:25:30;97142.97;;;9.17;95.69
21760;BME280;11041;50.854;20.580;2022-09-28T06:28:01;97131.31;;;9.20;95.91
21760;BME280;11041;50.854;20.580;2022-09-28T06:30:31;97140.69;;;9.19;95.49
21760;BME280;11041;50.854;20.580;2022-09-28T06:33:00;97145.25;;;9.15;95.41
21760;BME280;11041;50.854;20.580;2022-09-28T06:35:29;97153.69;;;9.22;95.85
21760;BME280;11041;50.854;20.580;2022-09-28T06:37:59;97151.97;;;9.17;95.13
21760;BME280;11041;50.854;20.580;2022-09-28T06:40:27;97163.97;;;9.25;95.98
21760;BME280;11041;50.854;20.580;2022-09-28T06:43:00;97157.09;;;9.31;96.49
21760;BME280;11041;50.854;20.580;2022-09-28T06:45:29;97164.84;;;9.42;96.00
21760;BME280;11041;50.854;20.580;2022-09-28T06:47:58;97160.94;;;9.43;94.89
21760;BME280;11041;50.854;20.580;2022-09-28T06:50:28;97159.28;;;9.38;94.03
21760;BME280;11041;50.854;20.580;2022-09-28T06:52:59;97167.50;;;9.38;94.26
21760;BME280;11041;50.854;20.580;2022-09-28T06:55:27;97160.72;;;9.35;93.82
21760;BME280;11041;50.854;20.580;2022-09-28T06:58:05;97168.88;;;9.32;94.46
21760;BME280;11041;50.854;20.580;2022-09-28T07:00:36;97159.38;;;9.29;94.78
21760;BME280;11041;50.854;20.580;2022-09-28T07:03:12;97158.34;;;9.34;94.59
21760;BME280;11041;50.854;20.580;2022-09-28T07:05:43;97162.19;;;9.45;95.23
21760;BME280;11041;50.854;20.580;2022-09-28T07:08:11;97162.41;;;9.52;93.97
21760;BME280;11041;50.854;20.580;2022-09-28T07:10:47;97168.00;;;9.56;93.97
21760;BME280;11041;50.854;20.580;2022-09-28T07:13:16;97157.38;;;9.54;92.89
21760;BME280;11041;50.854;20.580;2022-09-28T07:15:43;97163.69;;;9.55;92.60
21760;BME280;11041;50.854;20.580;2022-09-28T07:18:10;97164.69;;;9.63;93.66
21760;BME280;11041;50.854;20.580;2022-09-28T07:20:37;97157.69;;;9.65;93.40
21760;BME280;11041;50.854;20.580;2022-09-28T07:23:06;97160.97;;;9.71;91.82
21760;BME280;11041;50.854;20.580;2022-09-28T07:25:35;97173.78;;;9.79;92.36
21760;BME280;11041;50.854;20.580;2022-09-28T07:28:03;97166.69;;;9.78;92.93
21760;BME280;11041;50.854;20.580;2022-09-28T07:30:33;97177.50;;;9.87;92.31
21760;BME280;11041;50.854;20.580;2022-09-28T07:33:02;97174.78;;;9.87;91.28
21760;BME280;11041;50.854;20.580;2022-09-28T07:35:29;97172.91;;;9.91;91.50
21760;BME280;11041;50.854;20.580;2022-09-28T07:37:59;97169.47;;;9.94;91.12
21760;BME280;11041;50.854;20.580;2022-09-28T07:40:27;97163.75;;;9.99;91.00
21760;BME280;11041;50.854;20.580;2022-09-28T07:43:13;97164.53;;;9.99;90.97
21760;BME280;11041;50.854;20.580;2022-09-28T07:45:42;97163.16;;;10.06;91.27
21760;BME280;11041;50.854;20.580;2022-09-28T07:48:09;97170.41;;;10.14;90.38
21760;BME280;11041;50.854;20.580;2022-09-28T07:50:36;97166.75;;;10.10;89.84
21760;BME280;11041;50.854;20.580;2022-09-28T07:53:02;97156.94;;;10.09;89.71
21760;BME280;11041;50.854;20.580;2022-09-28T07:55:29;97153.94;;;10.14;89.81
21760;BME280;11041;50.854;20.580;2022-09-28T07:57:57;97159.69;;;10.24;89.02
21760;BME280;11041;50.854;20.580;2022-09-28T08:00:27;97158.56;;;10.26;88.11
21760;BME280;11041;50.854;20.580;2022-09-28T08:03:01;97157.59;;;10.18;88.64
21760;BME280;11041;50.854;20.580;2022-09-28T08:05:28;97149.63;;;10.13;88.75
21760;BME280;11041;50.854;20.580;2022-09-28T08:08:02;97161.47;;;10.17;89.58
21760;BME280;11041;50.854;20.580;2022-09-28T08:10:28;97160.34;;;10.18;90.36
21760;BME280;11041;50.854;20.580;2022-09-28T08:12:56;97152.97;;;10.22;89.93
21760;BME280;11041;50.854;20.580;2022-09-28T08:15:30;97161.31;;;10.26;90.59
21760;BME280;11041;50.854;20.580;2022-09-28T08:18:04;97169.16;;;10.39;90.72
21760;BME280;11041;50.854;20.580;2022-09-28T08:20:32;97144.91;;;10.41;89.99
21760;BME280;11041;50.854;20.580;2022-09-28T08:23:18;97156.41;;;10.47;89.41
21760;BME280;11041;50.854;20.580;2022-09-28T08:25:50;97151.25;;;10.45;88.17
21760;BME280;11041;50.854;20.580;2022-09-28T08:28:22;97156.94;;;10.53;89.08
21760;BME280;11041;50.854;20.580;2022-09-28T08:30:50;97152.41;;;10.60;86.90
21760;BME280;11041;50.854;20.580;2022-09-28T08:33:18;97162.00;;;10.66;88.52
21760;BME280;11041;50.854;20.580;2022-09-28T08:35:47;97169.63;;;10.73;85.46
21760;BME280;11041;50.854;20.580;2022-09-28T08:38:20;97166.50;;;10.75;85.68
21760;BME280;11041;50.854;20.580;2022-09-28T08:41:02;97158.97;;;10.72;83.13
21760;BME280;11041;50.854;20.580;2022-09-28T08:46:16;97163.75;;;10.75;84.24
21760;BME280;11041;50.854;20.580;2022-09-28T08:49:43;97155.72;;;10.66;83.93
21760;BME280;11041;50.854;20.580;2022-09-28T08:52:11;97160.66;;;10.76;85.00
21760;BME280;11041;50.854;20.580;2022-09-28T08:55:03;97157.38;;;10.86;84.53
21760;BME280;11041;50.854;20.580;2022-09-28T08:57:37;97148.00;;;10.87;83.77
21760;BME280;11041;50.854;20.580;2022-09-28T09:00:41;97157.09;;;11.07;82.37
21760;BME280;11041;50.854;20.580;2022-09-28T09:03:16;97153.63;;;11.11;83.08
21760;BME280;11041;50.854;20.580;2022-09-28T09:08:56;97163.06;;;11.29;81.46
21760;BME280;11041;50.854;20.580;2022-09-28T09:11:52;97155.78;;;11.37;79.34
21760;BME280;11041;50.854;20.580;2022-09-28T09:23:34;97177.34;;;11.54;78.24
21760;BME280;11041;50.854;20.580;2022-09-28T09:26:19;97173.09;;;11.57;78.64
21760;BME280;11041;50.854;20.580;2022-09-28T09:35:03;97172.06;;;12.00;76.16
21760;BME280;11041;50.854;20.580;2022-09-28T09:40:50;97162.63;;;12.21;73.25
21760;BME280;11041;50.854;20.580;2022-09-28T09:50:08;97169.66;;;12.18;69.57
21760;BME280;11041;50.854;20.580;2022-09-28T09:52:50;97168.88;;;12.18;69.53
21760;BME280;11041;50.854;20.580;2022-09-28T09:55:35;97180.88;;;12.09;70.63
21760;BME280;11041;50.854;20.580;2022-09-28T09:58:35;97177.00;;;12.10;71.09
21760;BME280;11041;50.854;20.580;2022-09-28T10:01:14;97174.69;;;12.12;68.35
21760;BME280;11041;50.854;20.580;2022-09-28T10:03:46;97173.59;;;12.17;69.99
21760;BME280;11041;50.854;20.580;2022-09-28T10:06:25;97178.72;;;12.19;68.93
21760;BME280;11041;50.854;20.580;2022-09-28T10:09:27;97170.16;;;12.24;69.83
21760;BME280;11041;50.854;20.580;2022-09-28T10:11:53;97175.91;;;12.38;69.59
21760;BME280;11041;50.854;20.580;2022-09-28T10:14:23;97182.06;;;12.51;70.84
21760;BME280;11041;50.854;20.580;2022-09-28T10:16:53;97172.44;;;12.64;69.14
21760;BME280;11041;50.854;20.580;2022-09-28T10:19:30;97185.38;;;12.83;66.45
21760;BME280;11041;50.854;20.580;2022-09-28T10:22:02;97201.97;;;12.87;65.83
21760;BME280;11041;50.854;20.580;2022-09-28T10:24:57;97185.25;;;12.76;65.09
21760;BME280;11041;50.854;20.580;2022-09-28T10:27:38;97192.22;;;12.70;63.17
21760;BME280;11041;50.854;20.580;2022-09-28T10:32:43;97194.19;;;12.46;65.57
21760;BME280;11041;50.854;20.580;2022-09-28T10:35:26;97184.63;;;12.40;67.38
21760;BME280;11041;50.854;20.580;2022-09-28T10:38:13;97187.47;;;12.44;67.67
21760;BME280;11041;50.854;20.580;2022-09-28T10:43:52;97183.44;;;12.61;66.35
21760;BME280;11041;50.854;20.580;2022-09-28T10:46:37;97184.97;;;12.58;65.60
21760;BME280;11041;50.854;20.580;2022-09-28T10:49:17;97189.59;;;12.54;64.64
21760;BME280;11041;50.854;20.580;2022-09-28T10:51:50;97186.28;;;12.45;65.48
21760;BME280;11041;50.854;20.580;2022-09-28T10:54:21;97173.41;;;12.29;66.58
21760;BME280;11041;50.854;20.580;2022-09-28T10:56:51;97175.25;;;12.45;67.50
21760;BME280;11041;50.854;20.580;2022-09-28T10:59:34;97192.28;;;12.50;66.65
21760;BME280;11041;50.854;20.580;2022-09-28T11:02:25;97184.97;;;12.58;68.55
21760;BME280;11041;50.854;20.580;2022-09-28T11:04:58;97184.25;;;12.65;67.34
21760;BME280;11041;50.854;20.580;2022-09-28T11:07:31;97185.88;;;12.66;63.31
21760;BME280;11041;50.854;20.580;2022-09-28T11:10:00;97174.66;;;12.55;63.70
21760;BME280;11041;50.854;20.580;2022-09-28T11:12:42;97180.09;;;12.51;62.81
21760;BME280;11041;50.854;20.580;2022-09-28T11:15:29;97166.94;;;12.41;63.24
21760;BME280;11041;50.854;20.580;2022-09-28T11:18:23;97164.47;;;12.36;64.65
21760;BME280;11041;50.854;20.580;2022-09-28T11:20:50;97150.69;;;12.36;64.86
21760;BME280;11041;50.854;20.580;2022-09-28T11:23:25;97169.09;;;12.51;65.25
21760;BME280;11041;50.854;20.580;2022-09-28T11:26:06;97160.63;;;12.64;64.26
21760;BME280;11041;50.854;20.580;2022-09-28T11:28:38;97163.63;;;12.78;63.52
21760;BME280;11041;50.854;20.580;2022-09-28T11:31:08;97164.06;;;12.80;63.38
21760;BME280;11041;50.854;20.580;2022-09-28T11:33:39;97163.81;;;12.89;62.16
21760;BME280;11041;50.854;20.580;2022-09-28T11:36:14;97156.81;;;12.95;61.49
21760;BME280;11041;50.854;20.580;2022-09-28T11:39:10;97157.09;;;13.13;61.82
21760;BME280;11041;50.854;20.580;2022-09-28T11:44:47;97151.50;;;13.32;60.72
21760;BME280;11041;50.854;20.580;2022-09-28T11:50:29;97153.72;;;13.23;58.30
21760;BME280;11041;50.854;20.580;2022-09-28T11:53:34;97158.53;;;13.30;58.75
21760;BME280;11041;50.854;20.580;2022-09-28T11:58:59;97155.31;;;13.51;58.28
21760;BME280;11041;50.854;20.580;2022-09-28T12:01:49;97162.00;;;13.50;58.31
21760;BME280;11041;50.854;20.580;2022-09-28T12:04:32;97151.09;;;13.60;55.66
21760;BME280;11041;50.854;20.580;2022-09-28T12:07:32;97144.34;;;13.58;55.95
21760;BME280;11041;50.854;20.580;2022-09-28T12:15:50;97137.69;;;13.59;56.95
21760;BME280;11041;50.854;20.580;2022-09-28T12:18:26;97132.81;;;13.79;56.05
21760;BME280;11041;50.854;20.580;2022-09-28T12:21:30;97135.84;;;14.04;54.85
21760;BME280;11041;50.854;20.580;2022-09-28T12:27:28;97135.28;;;14.25;52.89
21760;BME280;11041;50.854;20.580;2022-09-28T12:30:02;97153.13;;;14.31;52.95
21760;BME280;11041;50.854;20.580;2022-09-28T12:33:07;97144.44;;;14.33;53.40
21760;BME280;11041;50.854;20.580;2022-09-28T12:44:44;97125.94;;;14.78;51.01
21760;BME280;11041;50.854;20.580;2022-09-28T12:47:44;97118.50;;;14.85;50.34
21760;BME280;11041;50.854;20.580;2022-09-28T12:50:33;97113.75;;;14.86;51.27
21760;BME280;11041;50.854;20.580;2022-09-28T12:56:28;97122.09;;;14.93;51.55
21760;BME280;11041;50.854;20.580;2022-09-28T13:02:40;97116.56;;;14.93;51.17
21760;BME280;11041;50.854;20.580;2022-09-28T13:17:36;97080.66;;;15.00;50.73
21760;BME280;11041;50.854;20.580;2022-09-28T13:20:20;97077.94;;;15.07;52.64
21760;BME280;11041;50.854;20.580;2022-09-28T13:23:24;97081.97;;;15.21;52.16
21760;BME280;11041;50.854;20.580;2022-09-28T13:26:06;97085.53;;;15.25;50.68
21760;BME280;11041;50.854;20.580;2022-09-28T13:28:37;97084.78;;;15.28;50.83
21760;BME280;11041;50.854;20.580;2022-09-28T13:31:06;97080.47;;;15.34;52.61
21760;BME280;11041;50.854;20.580;2022-09-28T13:33:39;97080.13;;;15.43;51.71
21760;BME280;11041;50.854;20.580;2022-09-28T13:38:58;97078.56;;;15.45;51.12
21760;BME280;11041;50.854;20.580;2022-09-28T13:41:32;97069.84;;;15.43;52.26
21760;BME280;11041;50.854;20.580;2022-09-28T13:44:50;97058.75;;;15.40;52.31
21760;BME280;11041;50.854;20.580;2022-09-28T13:50:28;97061.88;;;15.27;50.49
21760;BME280;11041;50.854;20.580;2022-09-28T13:53:14;97065.78;;;15.23;52.49
21760;BME280;11041;50.854;20.580;2022-09-28T13:58:40;97063.38;;;15.14;51.94
21760;BME280;11041;50.854;20.580;2022-09-28T14:01:15;97057.78;;;15.07;52.55
21760;BME280;11041;50.854;20.580;2022-09-28T14:07:07;97045.13;;;15.02;54.53
21760;BME280;11041;50.854;20.580;2022-09-28T14:09:44;97057.00;;;15.10;53.42
21760;BME280;11041;50.854;20.580;2022-09-28T14:15:02;97060.16;;;15.05;53.37
21760;BME280;11041;50.854;20.580;2022-09-28T14:18:09;97065.59;;;14.90;52.29
21760;BME280;11041;50.854;20.580;2022-09-28T14:20:49;97067.47;;;14.76;53.94
21760;BME280;11041;50.854;20.580;2022-09-28T14:29:35;97072.09;;;14.64;56.74
21760;BME280;11041;50.854;20.580;2022-09-28T14:34:59;97071.22;;;14.53;58.31
21760;BME280;11041;50.854;20.580;2022-09-28T14:37:37;97074.34;;;14.48;58.31
21760;BME280;11041;50.854;20.580;2022-09-28T14:44:05;97061.59;;;14.36;59.79
21760;BME280;11041;50.854;20.580;2022-09-28T14:46:37;97070.59;;;14.30;60.38
21760;BME280;11041;50.854;20.580;2022-09-28T14:54:22;97060.03;;;13.98;66.21
21760;BME280;11041;50.854;20.580;2022-09-28T14:59:28;97065.44;;;13.87;68.07
21760;BME280;11041;50.854;20.580;2022-09-28T15:04:49;97061.75;;;13.72;68.96
21760;BME280;11041;50.854;20.580;2022-09-28T15:07:23;97056.56;;;13.67;69.65
21760;BME280;11041;50.854;20.580;2022-09-28T15:09:56;97055.63;;;13.56;69.99
21760;BME280;11041;50.854;20.580;2022-09-28T15:12:29;97061.53;;;13.54;71.12
21760;BME280;11041;50.854;20.580;2022-09-28T15:15:23;97053.97;;;13.48;72.18
21760;BME280;11041;50.854;20.580;2022-09-28T15:18:18;97062.59;;;13.46;71.80
21760;BME280;11041;50.854;20.580;2022-09-28T15:20:53;97043.59;;;13.37;72.33
21760;BME280;11041;50.854;20.580;2022-09-28T15:23:40;97042.06;;;13.40;73.52
21760;BME280;11041;50.854;20.580;2022-09-28T15:26:22;97034.13;;;13.35;73.56
21760;BME280;11041;50.854;20.580;2022-09-28T15:28:54;97028.97;;;13.33;73.29
21760;BME280;11041;50.854;20.580;2022-09-28T15:31:25;97037.19;;;13.30;72.28
21760;BME280;11041;50.854;20.580;2022-09-28T15:33:52;97037.91;;;13.27;70.99
21760;BME280;11041;50.854;20.580;2022-09-28T15:36:43;97034.69;;;13.21;70.87
21760;BME280;11041;50.854;20.580;2022-09-28T15:39:20;97031.88;;;13.17;71.47
21760;BME280;11041;50.854;20.580;2022-09-28T15:41:50;97020.41;;;13.15;72.50
21760;BME280;11041;50.854;20.580;2022-09-28T15:44:29;97029.03;;;13.10;74.09
21760;BME280;11041;50.854;20.580;2022-09-28T15:47:23;97027.34;;;13.02;75.99
21760;BME280;11041;50.854;20.580;2022-09-28T15:50:02;97032.06;;;13.02;76.70
21760;BME280;11041;50.854;20.580;2022-09-28T15:52:44;97030.34;;;12.90;77.79
21760;BME280;11041;50.854;20.580;2022-09-28T15:55:38;97046.88;;;12.90;78.28
21760;BME280;11041;50.854;20.580;2022-09-28T15:58:21;97029.44;;;12.82;79.16
21760;BME280;11041;50.854;20.580;2022-09-28T16:12:57;97020.47;;;12.35;82.84
21760;BME280;11041;50.854;20.580;2022-09-28T16:15:31;97024.75;;;12.33;83.04
21760;BME280;11041;50.854;20.580;2022-09-28T16:18:16;97022.25;;;12.24;82.98
21760;BME280;11041;50.854;20.580;2022-09-28T16:20:52;97022.13;;;12.17;83.33
21760;BME280;11041;50.854;20.580;2022-09-28T16:23:30;97032.28;;;12.13;83.13
21760;BME280;11041;50.854;20.580;2022-09-28T16:26:13;97025.88;;;12.05;82.38
21760;BME280;11041;50.854;20.580;2022-09-28T16:36:45;97012.34;;;11.97;82.43
21760;BME280;11041;50.854;20.580;2022-09-28T16:39:14;97010.69;;;11.92;81.99
21760;BME280;11041;50.854;20.580;2022-09-28T16:41:49;97007.50;;;11.90;82.21
21760;BME280;11041;50.854;20.580;2022-09-28T16:44:25;97019.31;;;11.90;81.81